createdAt,value
2022-08-12T00:00:08.012Z,48.69
2022-08-12T00:01:08.024Z,48.69
2022-08-12T00:02:07.983Z,49.09
2022-08-12T00:03:08.037Z,49.40
2022-08-12T00:04:07.953Z,49.62
2022-08-12T00:05:07.951Z,49.82
2022-08-12T00:06:07.935Z,49.62
2022-08-12T00:07:07.934Z,49.41
2022-08-12T00:08:07.915Z,49.72
2022-08-12T00:09:07.911Z,49.52
2022-08-12T00:10:07.912Z,49.52
2022-08-12T00:11:12.376Z,49.52
2022-08-12T00:12:08.878Z,49.62
2022-08-12T00:13:07.854Z,49.82
2022-08-12T00:14:07.846Z,49.72
2022-08-12T00:15:07.850Z,49.82
2022-08-12T00:16:07.827Z,49.52
2022-08-12T00:17:07.839Z,49.62
2022-08-12T00:18:07.807Z,49.44
2022-08-12T00:19:07.786Z,49.44
2022-08-12T00:20:07.785Z,49.34
2022-08-12T00:21:07.797Z,49.34
2022-08-12T00:22:07.758Z,49.34
2022-08-12T00:23:07.769Z,49.44
2022-08-12T00:24:07.738Z,49.44
2022-08-12T00:25:07.728Z,49.34
2022-08-12T00:26:22.908Z,49.34
2022-08-12T00:27:08.709Z,49.24
2022-08-12T00:28:07.690Z,49.24
2022-08-12T00:29:07.700Z,49.24
2022-08-12T00:30:07.671Z,49.24
2022-08-12T00:31:07.662Z,49.44
2022-08-12T00:32:07.651Z,49.64
2022-08-12T00:33:07.641Z,49.54
2022-08-12T00:34:07.631Z,49.44
2022-08-12T00:35:09.049Z,49.44
2022-08-12T00:36:07.602Z,49.84
2022-08-12T00:37:13.118Z,50.04
2022-08-12T00:38:07.604Z,50.14
2022-08-12T00:39:07.613Z,50.24
2022-08-12T00:40:11.435Z,50.37
2022-08-12T00:41:07.561Z,50.46
2022-08-12T00:42:07.543Z,50.67
2022-08-12T00:43:07.534Z,50.67
2022-08-12T00:44:07.523Z,50.67
2022-08-12T00:45:07.513Z,50.67
2022-08-12T00:46:07.503Z,50.57
2022-08-12T00:47:07.485Z,50.57
2022-08-12T00:48:08.475Z,50.67
2022-08-12T00:49:07.505Z,51.07
2022-08-12T00:50:07.456Z,51.07
2022-08-12T00:51:07.446Z,51.27
2022-08-12T00:52:07.435Z,51.19
2022-08-12T00:53:07.426Z,51.09
2022-08-12T00:54:07.406Z,51.29
2022-08-12T00:55:07.407Z,51.39
2022-08-12T00:56:07.396Z,51.39
2022-08-12T00:57:07.380Z,51.49
2022-08-12T00:58:07.370Z,51.29
2022-08-12T00:59:07.367Z,51.19
2022-08-12T01:00:07.359Z,51.09
2022-08-12T01:01:07.378Z,51.19
2022-08-12T01:02:11.969Z,51.19
2022-08-12T01:03:08.349Z,51.29
2022-08-12T01:04:07.299Z,51.39
2022-08-12T01:05:07.300Z,51.69
2022-08-12T01:06:07.280Z,51.79
2022-08-12T01:07:07.278Z,51.62
2022-08-12T01:08:07.260Z,51.62
2022-08-12T01:09:07.251Z,51.62
2022-08-12T01:10:07.241Z,51.72
2022-08-12T01:11:07.250Z,51.82
2022-08-12T01:12:07.220Z,51.82
2022-08-12T01:13:20.070Z,51.92
2022-08-12T01:14:08.192Z,52.32
2022-08-12T01:15:07.192Z,52.12
2022-08-12T01:16:07.172Z,52.12
2022-08-12T01:17:07.201Z,52.12
2022-08-12T01:18:07.189Z,52.12
2022-08-12T01:19:07.179Z,52.01
2022-08-12T01:20:07.171Z,52.22
2022-08-12T01:21:07.141Z,52.32
2022-08-12T01:22:07.131Z,52.52
2022-08-12T01:23:07.121Z,52.52
2022-08-12T01:24:30.458Z,52.82
2022-08-12T01:25:08.101Z,52.82
2022-08-12T01:26:07.082Z,52.75
2022-08-12T01:27:08.100Z,52.55
2022-08-12T01:28:07.073Z,52.55
2022-08-12T01:29:07.075Z,52.55
2022-08-12T01:30:07.036Z,53.34
2022-08-12T01:31:07.052Z,53.14
2022-08-12T01:32:07.044Z,52.94
2022-08-12T01:33:07.015Z,52.94
2022-08-12T01:34:35.526Z,53.05
2022-08-12T01:35:07.995Z,53.14
2022-08-12T01:36:08.720Z,53.25
2022-08-12T01:37:06.995Z,53.55
2022-08-12T01:38:06.989Z,53.57
2022-08-12T01:39:06.955Z,53.57
2022-08-12T01:40:34.372Z,53.57
2022-08-12T01:41:07.934Z,53.57
2022-08-12T01:42:06.916Z,53.77
2022-08-12T01:43:06.926Z,53.57
2022-08-12T01:44:06.908Z,53.47
2022-08-12T01:45:06.898Z,53.57
2022-08-12T01:46:06.910Z,53.77
2022-08-12T01:47:06.875Z,53.87
2022-08-12T01:48:06.848Z,53.67
2022-08-12T01:49:06.874Z,53.97
2022-08-12T01:50:06.828Z,53.87
2022-08-12T01:51:06.871Z,53.77
2022-08-12T01:52:21.217Z,54.38
2022-08-12T01:53:07.801Z,53.97
2022-08-12T01:54:06.800Z,54.17
2022-08-12T01:55:06.789Z,54.27
2022-08-12T01:56:06.807Z,54.68
2022-08-12T01:57:06.752Z,54.77
2022-08-12T01:58:06.751Z,54.80
2022-08-12T01:59:06.741Z,54.90
2022-08-12T02:00:07.732Z,54.80
2022-08-12T02:01:06.792Z,54.80
2022-08-12T02:02:06.711Z,54.70
2022-08-12T02:03:06.696Z,54.50
2022-08-12T02:04:06.686Z,54.50
2022-08-12T02:05:06.693Z,54.90
2022-08-12T02:06:06.684Z,54.80
2022-08-12T02:07:06.681Z,55.40
2022-08-12T02:08:06.687Z,55.10
2022-08-12T02:09:06.617Z,55.10
2022-08-12T02:10:06.634Z,55.40
2022-08-12T02:11:06.615Z,55.10
2022-08-12T02:12:08.530Z,55.00
2022-08-12T02:13:06.594Z,55.13
2022-08-12T02:14:06.578Z,55.13
2022-08-12T02:15:06.558Z,55.23
2022-08-12T02:16:06.552Z,55.43
2022-08-12T02:17:06.553Z,55.33
2022-08-12T02:18:06.536Z,55.63
2022-08-12T02:19:22.368Z,55.43
2022-08-12T02:20:07.527Z,55.63
2022-08-12T02:21:06.506Z,55.63
2022-08-12T02:22:06.517Z,55.43
2022-08-12T02:23:06.488Z,55.53
2022-08-12T02:24:06.467Z,55.33
2022-08-12T02:25:06.457Z,55.23
2022-08-12T02:26:06.440Z,55.23
2022-08-12T02:27:06.448Z,55.83
2022-08-12T02:28:08.138Z,55.73
2022-08-12T02:29:06.409Z,55.93
2022-08-12T02:30:06.399Z,55.93
2022-08-12T02:31:06.399Z,55.73
2022-08-12T02:32:06.390Z,55.73
2022-08-12T02:33:06.390Z,55.83
2022-08-12T02:34:06.360Z,55.83
2022-08-12T02:35:06.370Z,55.83
2022-08-12T02:36:06.330Z,55.93
2022-08-12T02:37:06.341Z,55.83
2022-08-12T02:38:06.310Z,55.73
2022-08-12T02:39:06.321Z,55.76
2022-08-12T02:40:06.313Z,55.86
2022-08-12T02:41:07.282Z,55.96
2022-08-12T02:42:06.291Z,55.66
2022-08-12T02:43:06.275Z,55.76
2022-08-12T02:44:06.242Z,55.66
2022-08-12T02:45:06.253Z,55.66
2022-08-12T02:46:09.338Z,55.76
2022-08-12T02:47:07.223Z,55.66
2022-08-12T02:48:07.206Z,55.55
2022-08-12T02:49:06.214Z,55.76
2022-08-12T02:50:06.195Z,55.76
2022-08-12T02:51:06.195Z,55.76
2022-08-12T02:52:06.175Z,55.76
2022-08-12T02:53:06.154Z,55.76
2022-08-12T02:54:06.558Z,55.76
2022-08-12T02:55:06.132Z,55.76
2022-08-12T02:56:06.104Z,55.96
2022-08-12T02:57:06.150Z,56.26
2022-08-12T02:58:07.138Z,56.38
2022-08-12T02:59:06.104Z,56.09
2022-08-12T03:00:06.067Z,56.29
2022-08-12T03:01:06.153Z,56.19
2022-08-12T03:02:06.058Z,56.29
2022-08-12T03:03:06.041Z,56.29
2022-08-12T03:04:06.027Z,56.29
2022-08-12T03:05:07.039Z,56.38
2022-08-12T03:06:06.027Z,56.38
2022-08-12T03:07:06.026Z,56.29
2022-08-12T03:08:05.988Z,56.49
2022-08-12T03:09:06.978Z,56.49
2022-08-12T03:10:06.913Z,56.49
2022-08-12T03:11:07.866Z,56.59
2022-08-12T03:12:06.950Z,56.59
2022-08-12T03:13:05.914Z,56.69
2022-08-12T03:14:05.918Z,56.89
2022-08-12T03:15:05.920Z,56.79
2022-08-12T03:16:05.933Z,56.89
2022-08-12T03:17:05.891Z,56.69
2022-08-12T03:18:25.571Z,56.89
2022-08-12T03:19:06.891Z,56.89
2022-08-12T03:20:09.223Z,56.89
2022-08-12T03:21:05.859Z,56.99
2022-08-12T03:22:09.179Z,57.22
2022-08-12T03:23:05.810Z,57.32
2022-08-12T03:24:05.824Z,57.32
2022-08-12T03:25:05.822Z,57.32
2022-08-12T03:26:05.778Z,57.32
2022-08-12T03:27:05.812Z,57.52
2022-08-12T03:28:05.764Z,57.52
2022-08-12T03:29:05.756Z,57.72
2022-08-12T03:30:05.764Z,57.82
2022-08-12T03:31:05.742Z,57.62
2022-08-12T03:32:05.736Z,57.72
2022-08-12T03:33:05.700Z,57.92
2022-08-12T03:34:05.715Z,58.22
2022-08-12T03:35:05.766Z,58.12
2022-08-12T03:36:05.698Z,58.22
2022-08-12T03:37:05.708Z,58.35
2022-08-12T03:38:05.676Z,58.35
2022-08-12T03:39:05.695Z,58.55
2022-08-12T03:40:05.680Z,58.65
2022-08-12T03:41:05.630Z,58.65
2022-08-12T03:42:05.643Z,59.06
2022-08-12T03:43:05.632Z,59.06
2022-08-12T03:44:05.607Z,59.16
2022-08-12T03:45:05.625Z,59.06
2022-08-12T03:46:05.598Z,59.16
2022-08-12T03:47:05.578Z,59.16
2022-08-12T03:48:05.609Z,59.56
2022-08-12T03:49:06.119Z,59.56
2022-08-12T03:50:05.539Z,59.46
2022-08-12T03:51:05.562Z,59.76
2022-08-12T03:52:05.521Z,59.66
2022-08-12T03:53:05.590Z,59.56
2022-08-12T03:54:05.485Z,59.76
2022-08-12T03:55:05.490Z,59.66
2022-08-12T03:56:05.532Z,59.69
2022-08-12T03:57:05.488Z,59.79
2022-08-12T03:58:05.442Z,59.79
2022-08-12T03:59:05.441Z,59.89
2022-08-12T04:00:05.425Z,59.89
2022-08-12T04:01:05.488Z,59.99
2022-08-12T04:02:05.455Z,60.39
2022-08-12T04:03:07.756Z,60.69
2022-08-12T04:04:06.384Z,60.80
2022-08-12T04:05:05.374Z,60.69
2022-08-12T04:06:05.404Z,60.80
2022-08-12T04:07:05.354Z,60.80
2022-08-12T04:08:05.354Z,61.20
2022-08-12T04:09:14.802Z,61.60
2022-08-12T04:10:06.334Z,61.50
2022-08-12T04:11:05.330Z,61.33
2022-08-12T04:12:05.314Z,61.13
2022-08-12T04:13:05.313Z,61.13
2022-08-12T04:14:05.285Z,61.13
2022-08-12T04:15:05.279Z,61.23
2022-08-12T04:16:05.253Z,61.63
2022-08-12T04:17:05.267Z,61.83
2022-08-12T04:18:07.329Z,61.83
2022-08-12T04:19:05.329Z,61.43
2022-08-12T04:20:05.208Z,61.23
2022-08-12T04:21:05.215Z,61.23
2022-08-12T04:22:05.320Z,61.93
2022-08-12T04:23:05.210Z,61.93
2022-08-12T04:24:05.177Z,61.83
2022-08-12T04:25:05.167Z,61.43
2022-08-12T04:26:05.149Z,61.43
2022-08-12T04:27:05.175Z,61.43
2022-08-12T04:28:13.361Z,61.73
2022-08-12T04:29:06.119Z,61.63
2022-08-12T04:30:30.734Z,61.33
2022-08-12T04:31:06.092Z,61.43
2022-08-12T04:32:05.070Z,61.43
2022-08-12T04:33:05.138Z,62.04
2022-08-12T04:34:05.073Z,62.24
2022-08-12T04:35:05.063Z,62.34
2022-08-12T04:36:05.171Z,62.24
2022-08-12T04:37:05.019Z,62.16
2022-08-12T04:38:05.061Z,61.93
2022-08-12T04:39:05.038Z,62.13
2022-08-12T04:40:05.002Z,62.06
2022-08-12T04:41:04.991Z,62.06
2022-08-12T04:42:05.025Z,62.06
2022-08-12T04:43:04.994Z,62.24
2022-08-12T04:44:04.994Z,62.24
2022-08-12T04:45:04.948Z,62.13
2022-08-12T04:46:04.954Z,62.13
2022-08-12T04:47:04.907Z,62.16
2022-08-12T04:48:04.964Z,62.26
2022-08-12T04:49:04.903Z,62.16
2022-08-12T04:50:04.883Z,62.16
2022-08-12T04:51:05.903Z,62.06
2022-08-12T04:52:04.886Z,62.16
2022-08-12T04:53:04.885Z,62.37
2022-08-12T04:54:04.865Z,62.57
2022-08-12T04:55:04.897Z,62.66
2022-08-12T04:56:04.862Z,62.77
2022-08-12T04:57:05.296Z,62.97
2022-08-12T04:58:04.802Z,62.77
2022-08-12T04:59:04.936Z,62.57
2022-08-12T05:00:04.837Z,62.77
2022-08-12T05:01:04.775Z,62.57
2022-08-12T05:02:04.827Z,62.57
2022-08-12T05:03:04.902Z,62.57
2022-08-12T05:04:04.777Z,62.66
2022-08-12T05:05:04.728Z,62.57
2022-08-12T05:06:04.736Z,62.46
2022-08-12T05:07:04.747Z,62.26
2022-08-12T05:08:04.690Z,62.26
2022-08-12T05:09:12.409Z,62.06
2022-08-12T05:10:05.672Z,62.06
2022-08-12T05:11:04.658Z,61.96
2022-08-12T05:12:04.653Z,61.96
2022-08-12T05:13:04.661Z,61.96
2022-08-12T05:14:04.630Z,61.93
2022-08-12T05:15:27.902Z,61.93
2022-08-12T05:16:09.080Z,62.13
2022-08-12T05:17:04.630Z,62.34
2022-08-12T05:18:20.385Z,62.74
2022-08-12T05:19:05.613Z,62.54
2022-08-12T05:20:05.592Z,62.74
2022-08-12T05:21:04.589Z,62.64
2022-08-12T05:22:04.555Z,62.44
2022-08-12T05:23:11.856Z,62.34
2022-08-12T05:24:05.512Z,62.34
2022-08-12T05:25:04.501Z,62.54
2022-08-12T05:26:04.514Z,62.44
2022-08-12T05:27:04.491Z,62.24
2022-08-12T05:28:04.492Z,62.54
2022-08-12T05:29:07.948Z,62.54
2022-08-12T05:30:09.272Z,62.34
2022-08-12T05:31:04.452Z,62.24
2022-08-12T05:32:04.464Z,62.24
2022-08-12T05:33:04.416Z,62.13
2022-08-12T05:34:04.613Z,62.13
2022-08-12T05:35:04.405Z,61.93
2022-08-12T05:36:04.404Z,62.04
2022-08-12T05:37:04.397Z,61.93
2022-08-12T05:38:04.386Z,61.83
2022-08-12T05:39:04.376Z,61.83
2022-08-12T05:40:09.941Z,61.83
2022-08-12T05:41:05.354Z,61.60
2022-08-12T05:42:04.351Z,61.50
2022-08-12T05:43:04.317Z,62.01
2022-08-12T05:44:04.322Z,61.80
2022-08-12T05:45:04.301Z,61.70
2022-08-12T05:46:04.327Z,61.50
2022-08-12T05:47:04.277Z,61.40
2022-08-12T05:48:04.304Z,61.40
2022-08-12T05:49:04.558Z,62.21
2022-08-12T05:50:04.328Z,61.80
2022-08-12T05:51:04.227Z,61.60
2022-08-12T05:52:04.218Z,61.90
2022-08-12T05:53:04.194Z,61.50
2022-08-12T05:54:04.231Z,61.40
2022-08-12T05:55:04.212Z,61.20
2022-08-12T05:56:04.250Z,61.60
2022-08-12T05:57:04.172Z,61.60
2022-08-12T05:58:04.173Z,61.60
2022-08-12T05:59:04.151Z,61.50
2022-08-12T06:00:04.172Z,61.70
2022-08-12T06:02:11.788Z,61.50
2022-08-12T06:02:12.762Z,61.47
2022-08-12T06:03:05.153Z,61.37
2022-08-12T06:04:04.093Z,61.37
2022-08-12T06:05:04.123Z,61.17
2022-08-12T06:06:04.074Z,60.87
2022-08-12T06:07:37.372Z,60.77
2022-08-12T06:08:05.033Z,60.87
2022-08-12T06:09:04.040Z,60.77
2022-08-12T06:10:04.055Z,60.97
2022-08-12T06:11:03.995Z,60.97
2022-08-12T06:12:05.841Z,60.77
2022-08-12T06:13:03.985Z,60.77
2022-08-12T06:14:03.987Z,60.87
2022-08-12T06:15:04.976Z,61.17
2022-08-12T06:16:03.956Z,61.07
2022-08-12T06:17:03.963Z,60.87
2022-08-12T06:18:03.946Z,60.77
2022-08-12T06:19:03.926Z,60.53
2022-08-12T06:20:26.400Z,60.57
2022-08-12T06:21:04.894Z,60.64
2022-08-12T06:22:03.889Z,60.53
2022-08-12T06:23:03.903Z,60.44
2022-08-12T06:24:03.905Z,60.84
2022-08-12T06:25:03.868Z,60.64
2022-08-12T06:26:03.867Z,60.53
2022-08-12T06:27:03.838Z,60.64
2022-08-12T06:28:06.123Z,60.64
2022-08-12T06:29:03.801Z,60.64
2022-08-12T06:30:07.958Z,60.74
2022-08-12T06:32:04.784Z,60.64
2022-08-12T06:33:18.665Z,60.44
2022-08-12T06:35:26.181Z,60.44
2022-08-12T06:35:27.128Z,60.53
2022-08-12T06:36:04.771Z,60.64
2022-08-12T06:37:03.730Z,60.74
2022-08-12T06:38:03.739Z,60.61
2022-08-12T06:39:03.736Z,60.71
2022-08-12T06:40:04.319Z,60.61
2022-08-12T06:41:03.681Z,60.51
2022-08-12T06:42:31.614Z,60.51
2022-08-12T06:43:04.683Z,60.51
2022-08-12T06:44:06.225Z,60.61
2022-08-12T06:45:03.654Z,60.61
2022-08-12T06:46:03.623Z,60.81
2022-08-12T06:47:03.654Z,60.71
2022-08-12T06:48:03.603Z,60.61
2022-08-12T06:49:03.615Z,60.48
2022-08-12T06:50:03.582Z,60.58
2022-08-12T06:51:03.596Z,60.08
2022-08-12T06:52:03.590Z,60.08
2022-08-12T06:53:03.544Z,60.08
2022-08-12T06:54:03.575Z,60.08
2022-08-12T06:55:03.522Z,60.18
2022-08-12T06:56:03.545Z,60.18
2022-08-12T06:57:57.206Z,60.08
2022-08-12T06:58:09.903Z,60.28
2022-08-12T06:59:04.476Z,60.38
2022-08-12T07:00:03.477Z,60.48
2022-08-12T07:01:03.558Z,60.45
2022-08-12T07:02:03.477Z,60.45
2022-08-12T07:03:22.861Z,60.25
2022-08-12T07:04:26.481Z,60.25
2022-08-12T07:05:04.446Z,60.05
2022-08-12T07:06:03.406Z,59.65
2022-08-12T07:07:03.410Z,59.34
2022-08-12T07:08:05.035Z,59.42
2022-08-12T07:09:04.400Z,59.32
2022-08-12T07:10:07.377Z,59.22
2022-08-12T07:11:03.370Z,59.92
2022-08-12T07:12:03.340Z,59.19
2022-08-12T07:13:03.337Z,58.79
2022-08-12T07:14:13.055Z,58.59
2022-08-12T07:15:04.320Z,58.59
2022-08-12T07:16:03.331Z,58.49
2022-08-12T07:17:03.299Z,58.49
2022-08-12T07:18:03.272Z,58.69
2022-08-12T07:19:03.312Z,58.66
2022-08-12T07:20:04.683Z,58.76
2022-08-12T07:21:03.291Z,58.46
2022-08-12T07:22:03.245Z,58.36
2022-08-12T07:23:03.292Z,58.16
2022-08-12T07:24:03.273Z,58.03
2022-08-12T07:25:03.192Z,57.93
2022-08-12T07:26:03.214Z,57.93
2022-08-12T07:27:03.174Z,57.43
2022-08-12T07:28:03.195Z,57.53
2022-08-12T07:29:04.185Z,57.83
2022-08-12T07:30:04.925Z,58.03
2022-08-12T07:31:03.164Z,57.33
2022-08-12T07:32:03.195Z,57.23
2022-08-12T07:33:03.125Z,57.03
2022-08-12T07:34:03.123Z,56.90
2022-08-12T07:35:03.099Z,56.40
2022-08-12T07:36:03.138Z,56.30
2022-08-12T07:37:03.841Z,56.40
2022-08-12T07:38:03.080Z,56.40
2022-08-12T07:39:03.108Z,56.40
2022-08-12T07:40:03.194Z,56.87
2022-08-12T07:41:03.061Z,56.27
2022-08-12T07:42:03.004Z,55.57
2022-08-12T07:43:03.018Z,55.35
2022-08-12T07:44:04.784Z,55.35
2022-08-12T07:45:03.009Z,55.65
2022-08-12T07:46:02.989Z,55.44
2022-08-12T07:47:02.944Z,55.65
2022-08-12T07:48:02.960Z,55.52
2022-08-12T07:49:02.952Z,55.22
2022-08-12T07:50:05.289Z,54.62
2022-08-12T07:51:02.929Z,54.52
2022-08-12T07:52:02.970Z,54.42
2022-08-12T07:53:02.897Z,54.29
2022-08-12T07:54:03.316Z,53.99
2022-08-12T07:55:02.902Z,53.89
2022-08-12T07:56:02.872Z,53.79
2022-08-12T07:57:02.862Z,53.99
2022-08-12T07:58:02.885Z,53.39
2022-08-12T07:59:02.870Z,53.19
2022-08-12T08:00:02.824Z,52.99
2022-08-12T08:01:02.804Z,52.49
2022-08-12T08:02:02.844Z,52.07
2022-08-12T08:03:02.783Z,52.07
2022-08-12T08:04:03.040Z,52.17
2022-08-12T08:05:02.783Z,52.17
2022-08-12T08:06:02.785Z,52.07
2022-08-12T08:07:02.772Z,52.07
2022-08-12T08:08:02.733Z,52.27
2022-08-12T08:09:02.734Z,52.14
2022-08-12T08:10:02.736Z,51.84
2022-08-12T08:11:04.357Z,51.34
2022-08-12T08:12:02.696Z,51.25
2022-08-12T08:13:02.672Z,51.34
2022-08-12T08:14:02.744Z,51.25
2022-08-12T08:15:02.677Z,51.45
2022-08-12T08:16:03.961Z,51.82
2022-08-12T08:17:02.637Z,51.52
2022-08-12T08:18:02.692Z,50.92
2022-08-12T08:19:02.618Z,51.22
2022-08-12T08:20:04.394Z,51.22
2022-08-12T08:21:02.588Z,50.79
2022-08-12T08:22:02.588Z,50.40
2022-08-12T08:23:02.613Z,50.70
2022-08-12T08:24:05.283Z,50.60
2022-08-12T08:25:02.550Z,50.90
2022-08-12T08:26:02.558Z,49.77
2022-08-12T08:27:02.540Z,49.77
2022-08-12T08:28:02.540Z,49.87
2022-08-12T08:29:02.484Z,50.57
2022-08-12T08:30:02.490Z,50.25
2022-08-12T08:31:02.482Z,48.43
2022-08-12T08:32:02.492Z,49.43
2022-08-12T08:33:02.479Z,48.73
2022-08-12T08:34:49.323Z,49.13
2022-08-12T08:35:03.473Z,48.11
2022-08-12T08:36:02.951Z,47.71
2022-08-12T08:37:07.631Z,48.50
2022-08-12T08:38:03.413Z,48.21
2022-08-12T08:39:02.416Z,48.11
2022-08-12T08:40:02.387Z,48.61
2022-08-12T08:41:02.384Z,48.11
2022-08-12T08:42:16.165Z,47.51
2022-08-12T08:43:03.380Z,48.01
2022-08-12T08:44:02.375Z,48.08
2022-08-12T08:45:02.331Z,46.79
2022-08-12T08:46:02.367Z,47.59
2022-08-12T08:47:02.330Z,47.69
2022-08-12T08:48:02.337Z,46.79
2022-08-12T08:49:02.293Z,46.87
2022-08-12T08:50:02.338Z,46.87
2022-08-12T08:51:04.787Z,46.59
2022-08-12T08:52:02.277Z,47.19
2022-08-12T08:53:02.257Z,46.97
2022-08-12T08:54:02.334Z,46.89
2022-08-12T08:55:02.252Z,46.89
2022-08-12T08:56:04.987Z,46.89
2022-08-12T08:57:02.206Z,47.09
2022-08-12T08:58:02.219Z,46.69
2022-08-12T08:59:02.182Z,46.79
2022-08-12T09:00:02.200Z,47.37
2022-08-12T09:01:02.175Z,47.56
2022-08-12T09:02:02.358Z,47.47
2022-08-12T09:03:02.168Z,47.07
2022-08-12T09:05:08.850Z,47.37
2022-08-12T09:05:12.288Z,46.67
2022-08-12T09:06:03.247Z,47.05
2022-08-12T09:08:12.117Z,45.55
2022-08-12T09:09:03.081Z,45.65
2022-08-12T09:11:03.087Z,45.63
2022-08-12T09:12:11.587Z,45.93
2022-08-12T09:13:03.053Z,45.53
2022-08-12T09:14:12.434Z,45.33
2022-08-12T09:15:03.014Z,46.20
2022-08-12T09:16:02.995Z,45.71
2022-08-12T09:17:01.985Z,45.31
2022-08-12T09:18:01.986Z,44.81
2022-08-12T09:19:01.988Z,43.72
2022-08-12T09:20:01.968Z,43.92
2022-08-12T09:21:02.748Z,44.40
2022-08-12T09:22:01.941Z,44.59
2022-08-12T09:23:08.085Z,43.60
2022-08-12T09:24:07.533Z,44.29
2022-08-12T09:26:03.919Z,44.07
2022-08-12T09:27:01.899Z,43.28
2022-08-12T09:28:04.951Z,43.06
2022-08-12T09:29:01.869Z,42.77
2022-08-12T09:30:10.186Z,42.19
2022-08-12T09:31:02.887Z,42.09
2022-08-12T09:32:03.192Z,43.66
2022-08-12T09:33:14.373Z,42.96
2022-08-12T09:34:25.168Z,43.06
2022-08-12T09:35:02.835Z,42.17
2022-08-12T09:36:04.320Z,41.87
2022-08-12T09:37:02.501Z,42.37
2022-08-12T09:38:01.772Z,41.67
2022-08-12T09:39:01.766Z,41.97
2022-08-12T09:40:55.501Z,42.17
2022-08-12T09:42:32.587Z,41.47
2022-08-12T09:42:34.359Z,42.77
2022-08-12T09:43:15.270Z,41.17
2022-08-12T09:44:04.824Z,41.77
2022-08-12T09:45:18.488Z,41.46
2022-08-12T09:46:11.933Z,41.16
2022-08-12T09:47:02.665Z,41.16
2022-08-12T09:48:02.701Z,40.86
2022-08-12T09:49:01.657Z,41.06
2022-08-12T09:50:01.655Z,40.96
2022-08-12T09:51:01.848Z,40.66
2022-08-12T09:52:01.656Z,40.66
2022-08-12T09:53:04.023Z,40.74
2022-08-12T09:54:34.628Z,41.33
2022-08-12T09:55:03.691Z,41.33
2022-08-12T09:56:56.994Z,40.25
2022-08-12T09:58:44.391Z,39.95
2022-08-12T09:58:47.139Z,40.12
2022-08-12T09:59:02.905Z,39.14
2022-08-12T10:00:16.325Z,38.74
2022-08-12T10:01:14.683Z,40.03
2022-08-12T10:02:42.173Z,40.31
2022-08-12T10:03:03.197Z,39.71
2022-08-12T10:04:04.053Z,39.31
2022-08-12T10:05:01.476Z,40.58
2022-08-12T10:06:27.157Z,38.90
2022-08-12T10:07:02.471Z,38.60
2022-08-12T10:08:01.459Z,39.10
2022-08-12T10:09:01.432Z,39.00
2022-08-12T10:10:01.495Z,38.70
2022-08-12T10:11:01.422Z,38.51
2022-08-12T10:12:09.974Z,38.70
2022-08-12T10:13:08.614Z,38.40
2022-08-12T10:14:02.383Z,39.29
2022-08-12T10:15:01.419Z,39.10
2022-08-12T10:16:05.174Z,40.09
2022-08-12T10:17:01.354Z,38.59
2022-08-12T10:18:06.851Z,38.78
2022-08-12T10:19:02.323Z,38.29
2022-08-12T10:20:01.327Z,38.78
2022-08-12T10:21:01.327Z,39.06
2022-08-12T10:22:01.377Z,38.07
2022-08-12T10:23:01.297Z,38.86
2022-08-12T10:24:01.284Z,39.16
2022-08-12T10:25:01.268Z,38.47
2022-08-12T10:26:36.696Z,38.17
2022-08-12T10:27:05.741Z,38.37
2022-08-12T10:28:04.600Z,38.37
2022-08-12T10:29:03.453Z,38.27
2022-08-12T10:30:39.594Z,37.48
2022-08-12T10:31:05.185Z,37.56
2022-08-12T10:32:20.492Z,37.66
2022-08-12T10:33:02.940Z,37.66
2022-08-12T10:34:06.515Z,37.85
2022-08-12T10:35:02.162Z,37.66
2022-08-12T10:36:01.132Z,38.84
2022-08-12T10:37:10.707Z,38.65
2022-08-12T10:38:34.384Z,38.35
2022-08-12T10:39:02.133Z,38.43
2022-08-12T10:40:11.145Z,37.84
2022-08-12T10:41:03.928Z,38.13
2022-08-12T10:42:01.103Z,37.54
2022-08-12T10:43:01.114Z,37.92
2022-08-12T10:44:01.053Z,37.72
2022-08-12T10:45:01.114Z,36.34
2022-08-12T10:46:01.037Z,37.32
2022-08-12T10:47:01.035Z,37.03
2022-08-12T10:48:20.546Z,36.44
2022-08-12T10:49:06.405Z,36.63
2022-08-12T10:50:28.167Z,36.63
2022-08-12T10:51:03.700Z,36.73
2022-08-12T10:52:32.778Z,36.44
2022-08-12T10:53:01.959Z,36.24
2022-08-12T10:54:02.105Z,37.03
2022-08-12T10:55:00.959Z,36.44
2022-08-12T10:56:02.045Z,36.14
2022-08-12T10:57:00.987Z,35.94
2022-08-12T10:58:14.453Z,36.34
2022-08-12T10:59:01.889Z,35.85
2022-08-12T11:00:34.570Z,35.45
2022-08-12T11:01:49.747Z,35.45
2022-08-12T11:04:27.682Z,35.53
2022-08-12T11:04:31.295Z,34.64
2022-08-12T11:04:31.876Z,35.04
2022-08-12T11:07:07.393Z,35.14
2022-08-12T11:07:07.716Z,35.14
2022-08-12T11:07:10.117Z,34.44
2022-08-12T11:08:34.897Z,34.43
2022-08-12T11:09:01.843Z,34.43
2022-08-12T11:10:02.757Z,34.53
2022-08-12T11:11:01.614Z,35.81
2022-08-12T11:12:35.433Z,35.02
2022-08-12T11:13:02.726Z,35.12
2022-08-12T11:14:00.828Z,34.63
2022-08-12T11:15:00.745Z,35.12
2022-08-12T11:16:19.073Z,35.31
2022-08-12T11:17:33.628Z,35.00
2022-08-12T11:18:03.191Z,35.10
2022-08-12T11:19:02.768Z,34.41
2022-08-12T11:20:02.046Z,34.91
2022-08-12T11:21:00.686Z,35.20
2022-08-12T11:22:03.278Z,34.20
2022-08-12T11:23:03.490Z,34.00
2022-08-12T11:24:01.785Z,35.08
2022-08-12T11:25:00.645Z,34.99
2022-08-12T11:26:05.509Z,34.20
2022-08-12T11:27:01.791Z,34.58
2022-08-12T11:28:01.589Z,35.07
2022-08-12T11:29:05.980Z,33.89
2022-08-12T11:30:07.064Z,34.97
2022-08-12T11:31:01.601Z,34.38
2022-08-12T11:32:02.412Z,34.08
2022-08-12T11:33:00.579Z,33.00
2022-08-12T11:34:04.820Z,32.90
2022-08-12T11:35:01.524Z,33.00
2022-08-12T11:36:00.504Z,33.28
2022-08-12T11:37:00.462Z,33.28
2022-08-12T11:38:00.697Z,33.48
2022-08-12T11:39:01.318Z,32.89
2022-08-12T11:40:00.441Z,33.08
2022-08-12T11:41:00.442Z,33.36
2022-08-12T11:42:00.475Z,32.38
2022-08-12T11:43:17.916Z,32.00
2022-08-12T11:44:12.656Z,31.90
2022-08-12T11:45:01.360Z,33.77
2022-08-12T11:46:00.464Z,33.67
2022-08-12T11:47:00.378Z,32.98
2022-08-12T11:48:00.344Z,33.87
2022-08-12T11:49:00.368Z,33.38
2022-08-12T11:50:00.336Z,33.46
2022-08-12T11:51:00.333Z,33.26
2022-08-12T11:52:00.320Z,33.65
2022-08-12T11:53:00.312Z,33.07
2022-08-12T11:54:01.462Z,32.57
2022-08-12T11:55:00.274Z,32.56
2022-08-12T11:56:00.305Z,32.65
2022-08-12T11:57:02.837Z,32.65
2022-08-12T11:58:42.305Z,32.17
2022-08-12T12:02:05.192Z,32.74
2022-08-12T12:03:00.256Z,32.14
2022-08-12T12:04:00.182Z,32.14
2022-08-12T12:05:00.222Z,31.53
2022-08-12T12:06:00.453Z,31.43
2022-08-12T12:07:06.978Z,31.92
2022-08-12T12:08:37.639Z,31.23
2022-08-12T12:09:01.126Z,31.04
2022-08-12T12:10:00.127Z,31.51
2022-08-12T12:11:00.170Z,30.14
2022-08-12T12:12:00.129Z,30.33
2022-08-12T12:13:00.147Z,29.73
2022-08-12T12:14:07.546Z,30.62
2022-08-12T12:15:06.727Z,29.82
2022-08-12T12:16:01.051Z,29.80
2022-08-12T12:17:00.093Z,30.49
2022-08-12T12:18:00.068Z,29.70
2022-08-12T12:19:00.052Z,30.98
2022-08-12T12:20:00.037Z,30.37
2022-08-12T12:21:00.028Z,30.46
2022-08-12T12:22:00.016Z,30.35
2022-08-12T12:23:00.037Z,29.94
2022-08-12T12:24:00.853Z,29.83
2022-08-12T12:25:12.564Z,29.32
2022-08-12T12:26:07.991Z,29.02
2022-08-12T12:27:01.507Z,28.52
2022-08-12T12:28:05.903Z,28.61
2022-08-12T12:29:00.915Z,28.01
2022-08-12T12:30:13.683Z,27.51
2022-08-12T12:31:00.933Z,27.78
2022-08-12T12:32:11.153Z,27.37
2022-08-12T12:33:00.903Z,27.19
2022-08-12T12:33:59.885Z,27.58
2022-08-12T12:35:13.520Z,27.89
2022-08-12T12:36:18.947Z,27.59
2022-08-12T12:37:01.089Z,28.29
2022-08-12T12:38:05.432Z,28.00
2022-08-12T12:39:00.839Z,27.91
2022-08-12T12:39:59.871Z,26.94
2022-08-12T12:40:59.823Z,25.27
2022-08-12T12:42:57.869Z,23.74
2022-08-12T12:43:05.145Z,22.92
2022-08-12T12:44:04.073Z,21.32
2022-08-12T12:44:59.793Z,20.51
2022-08-12T12:45:59.795Z,21.11
2022-08-12T12:46:59.773Z,21.84
2022-08-12T12:47:59.735Z,22.46
2022-08-12T12:48:59.756Z,21.54
2022-08-12T12:49:59.728Z,22.57
2022-08-12T12:50:59.767Z,23.38
2022-08-12T12:52:18.427Z,24.19
2022-08-12T12:53:00.706Z,24.12
2022-08-12T12:54:08.035Z,24.54
2022-08-12T12:55:00.679Z,23.16
2022-08-12T12:55:59.670Z,22.12
2022-08-12T12:56:59.675Z,21.14
2022-08-12T12:58:00.967Z,21.41
2022-08-12T12:58:59.673Z,21.14